Time;durP1;ratioP1;P1;durP2;ratioP2;P2;SDS_P1;SDS_P2;PMS_P1;PMS_P2;Temp;Humidity;BMP_temperature;BMP_pressure;BME280_temperature;BME280_humidity;BME280_pressure;Samples;Min_cycle;Max_cycle;Signal;HPM_P1;HPM_P2
2021/01/07 00:02:21;;;;;;;53.60;30.80;;;3.50;94.40;;;;;;4939588;28;20236;-82
2021/01/07 00:04:49;;;;;;;50.10;30.43;;;3.50;94.40;;;;;;4983192;28;20202;-83
2021/01/07 00:07:16;;;;;;;53.17;31.10;;;3.60;94.50;;;;;;4966692;28;20202;-83
2021/01/07 00:09:44;;;;;;;53.70;29.70;;;3.50;94.40;;;;;;4980484;28;20471;-82
2021/01/07 00:12:12;;;;;;;47.17;28.53;;;3.40;94.40;;;;;;4932709;28;20620;-82
2021/01/07 00:14:40;;;;;;;47.70;28.83;;;3.40;94.40;;;;;;4942530;28;20285;-81
2021/01/07 00:17:08;;;;;;;47.73;27.37;;;3.40;94.40;;;;;;4962419;28;20204;-81
2021/01/07 00:19:36;;;;;;;46.53;26.93;;;3.40;94.40;;;;;;4951903;28;20220;-82
2021/01/07 00:22:04;;;;;;;45.40;26.60;;;3.40;94.40;;;;;;4941296;28;20245;-84
2021/01/07 00:24:32;;;;;;;44.23;25.70;;;3.30;94.40;;;;;;4948977;28;20254;-82
2021/01/07 00:27:00;;;;;;;41.53;25.03;;;3.20;94.30;;;;;;4954493;28;20209;-82
2021/01/07 00:29:28;;;;;;;43.97;24.40;;;3.30;94.40;;;;;;4942630;28;20666;-82
2021/01/07 00:31:56;;;;;;;41.90;25.50;;;3.30;94.40;;;;;;4936577;28;20229;-80
2021/01/07 00:34:23;;;;;;;41.30;23.73;;;3.30;94.30;;;;;;4946374;28;20824;-82
2021/01/07 00:36:54;;;;;;;39.13;23.17;;;3.30;94.30;;;;;;4947462;28;20204;-81
2021/01/07 00:39:22;;;;;;;33.47;21.07;;;3.30;94.30;;;;;;4962454;28;20214;-81
2021/01/07 00:41:54;;;;;;;28.77;18.33;;;3.30;94.30;;;;;;4919035;28;20243;-80
2021/01/07 00:44:21;;;;;;;28.63;18.90;;;3.20;94.20;;;;;;4963164;28;20229;-81
2021/01/07 00:46:51;;;;;;;24.30;17.70;;;3.20;94.20;;;;;;4961634;28;20267;-80
2021/01/07 00:49:19;;;;;;;24.10;17.50;;;3.20;94.20;;;;;;4969326;28;20530;-81
2021/01/07 00:51:46;;;;;;;26.73;16.57;;;3.20;94.10;;;;;;4945977;28;20316;-83
2021/01/07 00:54:15;;;;;;;26.27;16.53;;;3.20;94.10;;;;;;4950870;28;20329;-81
2021/01/07 00:56:42;;;;;;;23.33;15.10;;;3.10;93.90;;;;;;4968347;28;20197;-82
2021/01/07 00:59:10;;;;;;;20.60;14.57;;;3.10;93.80;;;;;;4965181;28;20450;-83
2021/01/07 01:01:43;;;;;;;19.10;13.97;;;3.00;93.70;;;;;;4960092;28;20249;-83
2021/01/07 01:04:12;;;;;;;20.27;15.10;;;3.00;93.70;;;;;;4958977;28;20243;-83
2021/01/07 01:06:40;;;;;;;21.10;15.37;;;2.90;93.70;;;;;;4958710;28;20690;-80
2021/01/07 01:09:09;;;;;;;21.23;14.40;;;2.90;93.60;;;;;;4961151;28;20201;-83
2021/01/07 01:11:40;;;;;;;19.03;14.13;;;2.90;93.60;;;;;;4934107;28;20226;-82
2021/01/07 01:14:08;;;;;;;19.63;13.97;;;2.80;93.60;;;;;;4931639;28;20630;-82
2021/01/07 01:16:36;;;;;;;19.80;14.70;;;2.80;93.60;;;;;;4950781;28;20193;-82
2021/01/07 01:19:04;;;;;;;21.13;14.47;;;2.70;93.60;;;;;;4949160;28;20209;-81
2021/01/07 01:21:33;;;;;;;20.87;14.40;;;2.70;93.60;;;;;;4939435;28;20240;-81
2021/01/07 01:24:01;;;;;;;20.03;14.57;;;2.70;93.70;;;;;;4948132;28;20248;-83
2021/01/07 01:26:28;;;;;;;22.17;14.47;;;2.70;93.70;;;;;;4953484;28;20204;-83
2021/01/07 01:28:56;;;;;;;22.00;14.40;;;2.70;93.70;;;;;;4957131;28;20205;-82
2021/01/07 01:31:23;;;;;;;21.07;14.70;;;2.70;93.80;;;;;;4960114;28;20229;-81
2021/01/07 01:33:51;;;;;;;20.13;14.57;;;2.70;93.70;;;;;;4971798;28;20245;-82
2021/01/07 01:36:25;;;;;;;19.63;14.00;;;2.80;93.80;;;;;;4974631;28;20213;-81
2021/01/07 01:38:53;;;;;;;22.83;14.60;;;2.70;93.70;;;;;;4950701;28;20217;-81
2021/01/07 01:41:21;;;;;;;19.77;14.40;;;2.70;93.70;;;;;;4946549;28;20816;-81
2021/01/07 01:43:48;;;;;;;20.73;14.20;;;2.70;93.60;;;;;;4942024;28;20252;-83
2021/01/07 01:46:17;;;;;;;21.93;15.47;;;2.60;93.60;;;;;;4950548;28;20860;-82
2021/01/07 01:48:44;;;;;;;21.83;14.20;;;2.60;93.70;;;;;;4945360;28;20540;-84
2021/01/07 01:51:15;;;;;;;20.70;14.53;;;2.60;93.70;;;;;;4945842;28;20197;-82
2021/01/07 01:53:43;;;;;;;21.00;15.03;;;2.60;93.80;;;;;;4924640;28;20221;-80
2021/01/07 01:56:14;;;;;;;22.37;15.07;;;2.60;93.80;;;;;;4951911;28;20205;-81
2021/01/07 01:58:42;;;;;;;23.17;15.43;;;2.60;93.80;;;;;;4949028;28;20193;-80
2021/01/07 02:01:09;;;;;;;23.40;15.67;;;2.50;93.80;;;;;;4937981;28;20228;-81
2021/01/07 02:03:42;;;;;;;19.10;14.10;;;2.50;93.80;;;;;;4930046;28;20225;-83
2021/01/07 02:06:14;;;;;;;23.60;15.40;;;2.50;93.80;;;;;;4941368;28;20344;-82
2021/01/07 02:08:43;;;;;;;23.17;16.23;;;2.50;93.80;;;;;;4963623;28;20209;-80
2021/01/07 02:11:12;;;;;;;22.13;15.97;;;2.50;93.80;;;;;;4933412;28;20237;-81
2021/01/07 02:13:40;;;;;;;23.30;16.60;;;2.50;93.80;;;;;;4968100;28;20376;-82
2021/01/07 02:16:07;;;;;;;23.00;15.73;;;2.40;93.80;;;;;;4978279;28;20203;-82
2021/01/07 02:18:35;;;;;;;24.80;17.33;;;2.50;93.80;;;;;;4953295;28;20211;-82
2021/01/07 02:21:04;;;;;;;22.83;16.53;;;2.30;93.80;;;;;;4960371;28;20729;-81
2021/01/07 02:23:32;;;;;;;23.20;17.33;;;2.40;93.80;;;;;;4923795;28;20218;-80
2021/01/07 02:25:59;;;;;;;23.20;16.90;;;2.40;93.80;;;;;;4963073;28;20216;-82
2021/01/07 02:28:27;;;;;;;25.00;16.80;;;2.40;93.80;;;;;;4983017;28;20216;-82
2021/01/07 02:30:55;;;;;;;24.33;16.73;;;2.40;93.90;;;;;;4956043;28;20223;-81
2021/01/07 02:33:23;;;;;;;24.47;16.83;;;2.40;93.90;;;;;;4948333;28;20255;-82
2021/01/07 02:35:50;;;;;;;28.93;18.43;;;2.40;93.90;;;;;;4964472;28;20272;-81
2021/01/07 02:38:18;;;;;;;25.67;18.20;;;2.40;93.90;;;;;;4970146;28;20209;-80
2021/01/07 02:40:46;;;;;;;25.20;17.37;;;2.40;93.90;;;;;;4984121;28;20202;-82
2021/01/07 02:43:14;;;;;;;25.47;18.03;;;2.40;93.90;;;;;;4938997;28;20232;-81
2021/01/07 02:45:42;;;;;;;28.97;19.27;;;2.30;93.90;;;;;;4975046;28;20402;-81
2021/01/07 02:48:09;;;;;;;27.23;18.53;;;2.40;93.90;;;;;;4961929;28;20203;-82
2021/01/07 02:50:37;;;;;;;26.70;18.23;;;2.40;93.90;;;;;;4953968;28;20214;-82
2021/01/07 02:53:05;;;;;;;30.77;18.87;;;2.40;93.90;;;;;;4920441;28;20227;-80
2021/01/07 02:55:33;;;;;;;27.67;18.20;;;2.40;93.90;;;;;;4957660;28;20991;-82
2021/01/07 02:58:00;;;;;;;25.73;18.07;;;2.40;93.90;;;;;;4962114;28;20194;-81
2021/01/07 03:00:28;;;;;;;27.00;17.80;;;2.40;93.90;;;;;;4962786;28;20264;-80
2021/01/07 03:02:56;;;;;;;29.87;19.20;;;2.40;93.90;;;;;;4947904;28;20237;-81
2021/01/07 03:05:23;;;;;;;27.97;18.57;;;2.40;93.90;;;;;;4942284;28;20316;-81
2021/01/07 03:07:51;;;;;;;29.20;18.73;;;2.40;93.80;;;;;;4956372;28;20258;-80
2021/01/07 03:10:18;;;;;;;29.77;19.10;;;2.40;93.90;;;;;;4952321;28;20202;-81
2021/01/07 03:12:46;;;;;;;30.87;19.43;;;2.50;93.90;;;;;;4916406;28;20232;-80
2021/01/07 03:15:15;;;;;;;31.23;19.47;;;2.40;93.80;;;;;;4959722;28;20693;-81
2021/01/07 03:17:42;;;;;;;27.73;19.37;;;2.40;93.80;;;;;;4946440;28;20212;-81
2021/01/07 03:20:12;;;;;;;31.13;19.57;;;2.40;93.80;;;;;;4954907;28;20222;-80
2021/01/07 03:22:40;;;;;;;29.50;19.30;;;2.40;93.80;;;;;;4934812;28;20229;-80
2021/01/07 03:25:09;;;;;;;32.20;20.10;;;2.40;93.80;;;;;;4949850;28;20268;-82
2021/01/07 03:27:38;;;;;;;32.83;20.33;;;2.40;93.80;;;;;;4948366;28;20514;-82
2021/01/07 03:30:08;;;;;;;32.17;20.50;;;2.40;93.80;;;;;;4953323;28;20209;-80
2021/01/07 03:32:36;;;;;;;32.67;20.73;;;2.40;93.80;;;;;;4923556;28;20239;-81
2021/01/07 03:35:05;;;;;;;33.13;20.53;;;2.60;93.90;;;;;;4948550;28;20810;-81
2021/01/07 03:37:33;;;;;;;34.33;20.40;;;2.40;93.90;;;;;;4931445;28;20207;-82
2021/01/07 03:40:00;;;;;;;31.90;20.77;;;2.40;93.90;;;;;;4939601;28;20435;-82
2021/01/07 03:42:27;;;;;;;35.10;21.50;;;2.40;93.90;;;;;;4919724;28;20238;-81
2021/01/07 03:44:55;;;;;;;37.03;21.63;;;2.60;93.90;;;;;;4949325;28;20559;-82
2021/01/07 03:47:23;;;;;;;33.63;20.80;;;2.50;93.90;;;;;;4964079;28;20675;-81
2021/01/07 03:49:51;;;;;;;35.90;21.37;;;2.50;93.90;;;;;;4959710;28;20206;-79
2021/01/07 03:52:18;;;;;;;33.47;21.40;;;2.50;93.90;;;;;;4949867;28;20271;-81
2021/01/07 03:54:46;;;;;;;33.33;21.00;;;2.50;93.90;;;;;;4954855;28;20866;-81
2021/01/07 03:57:14;;;;;;;34.60;20.87;;;2.50;93.90;;;;;;4947240;28;20221;-82
2021/01/07 03:59:41;;;;;;;34.63;21.10;;;2.50;93.90;;;;;;4948068;28;20694;-82
2021/01/07 04:02:09;;;;;;;35.27;21.63;;;2.50;93.90;;;;;;4930296;28;20248;-81
2021/01/07 04:04:37;;;;;;;35.90;22.13;;;2.50;93.80;;;;;;4939808;28;20225;-81
2021/01/07 04:07:05;;;;;;;33.53;20.80;;;2.50;93.80;;;;;;4951752;28;20737;-81
2021/01/07 04:09:33;;;;;;;33.10;20.70;;;2.50;93.70;;;;;;4958918;28;20288;-79
2021/01/07 04:12:00;;;;;;;35.53;22.00;;;2.50;93.70;;;;;;4919332;28;20224;-81
2021/01/07 04:14:28;;;;;;;34.47;21.30;;;2.50;93.70;;;;;;4959518;28;20465;-80
2021/01/07 04:16:55;;;;;;;32.17;19.80;;;2.50;93.70;;;;;;4956370;28;20300;-81
2021/01/07 04:19:22;;;;;;;34.97;20.90;;;2.50;93.70;;;;;;4937656;28;20202;-82
2021/01/07 04:21:53;;;;;;;36.63;21.27;;;2.60;93.70;;;;;;4944636;28;20244;-80
2021/01/07 04:24:21;;;;;;;32.87;19.47;;;2.60;93.70;;;;;;4942831;28;20246;-81
2021/01/07 04:26:48;;;;;;;33.93;20.43;;;2.50;93.60;;;;;;4968336;28;20988;-82
2021/01/07 04:29:16;;;;;;;33.30;19.67;;;2.50;93.70;;;;;;4973264;28;20184;-80
2021/01/07 04:31:43;;;;;;;35.77;21.27;;;2.50;93.60;;;;;;4925874;28;21041;-79
2021/01/07 04:34:11;;;;;;;34.13;20.07;;;2.60;93.60;;;;;;4949699;28;20211;-81
2021/01/07 04:36:39;;;;;;;35.40;20.37;;;2.50;93.60;;;;;;4949080;28;20528;-82
2021/01/07 04:39:07;;;;;;;36.30;21.87;;;2.50;93.60;;;;;;4949160;28;20749;-82
2021/01/07 04:41:35;;;;;;;34.33;21.00;;;2.50;93.60;;;;;;4939440;28;20232;-80
2021/01/07 04:44:03;;;;;;;34.60;21.37;;;2.60;93.60;;;;;;4925354;28;20227;-81
2021/01/07 04:46:31;;;;;;;36.33;19.63;;;2.60;93.60;;;;;;4960295;28;20207;-81
2021/01/07 04:48:59;;;;;;;36.33;21.13;;;2.50;93.50;;;;;;4963643;28;20185;-81
2021/01/07 04:51:26;;;;;;;33.90;20.43;;;2.50;93.50;;;;;;4968605;28;20620;-80
2021/01/07 04:53:54;;;;;;;33.40;20.60;;;2.60;93.50;;;;;;4948641;28;20705;-80
2021/01/07 04:56:23;;;;;;;37.10;20.93;;;2.60;93.50;;;;;;4945469;28;20802;-81
2021/01/07 04:58:51;;;;;;;33.80;21.00;;;2.60;93.40;;;;;;4941292;28;20889;-80
2021/01/07 05:01:18;;;;;;;35.07;20.33;;;2.60;93.40;;;;;;4939249;28;20225;-82
2021/01/07 05:03:46;;;;;;;36.53;20.37;;;2.60;93.40;;;;;;4935941;28;20229;-82
2021/01/07 05:06:14;;;;;;;35.57;20.80;;;2.60;93.40;;;;;;4965072;28;20201;-84
2021/01/07 05:08:42;;;;;;;35.73;21.03;;;2.60;93.30;;;;;;4950537;28;20202;-81
2021/01/07 05:11:10;;;;;;;34.50;20.90;;;2.50;93.20;;;;;;4941856;28;20210;-81
2021/01/07 05:13:42;;;;;;;36.33;20.30;;;2.60;93.20;;;;;;4955284;28;20255;-82
2021/01/07 05:16:21;;;;;;;37.23;20.80;;;2.60;93.30;;;;;;4949206;28;20216;-81
2021/01/07 05:18:49;;;;;;;38.63;21.13;;;2.60;93.30;;;;;;4955896;28;20294;-81
2021/01/07 05:21:21;;;;;;;34.27;20.77;;;2.60;93.20;;;;;;4950585;28;20292;-82
2021/01/07 05:23:49;;;;;;;35.10;20.93;;;2.60;93.20;;;;;;4952303;28;20614;-80
2021/01/07 05:26:18;;;;;;;36.47;20.70;;;2.60;93.10;;;;;;4971056;28;20204;-81
2021/01/07 05:28:47;;;;;;;32.90;20.67;;;2.60;93.00;;;;;;4948787;28;21163;-81
2021/01/07 05:31:18;;;;;;;37.80;19.93;;;2.70;93.00;;;;;;4935085;28;20202;-81
2021/01/07 05:33:45;;;;;;;37.27;20.00;;;2.60;93.00;;;;;;4933215;28;20231;-83
2021/01/07 05:36:20;;;;;;;36.27;21.53;;;2.50;93.10;;;;;;4949190;28;20213;-81
2021/01/07 05:38:49;;;;;;;33.73;20.03;;;2.60;93.10;;;;;;4954071;28;20721;-81
2021/01/07 05:41:18;;;;;;;38.30;20.73;;;2.40;93.10;;;;;;4932912;28;20578;-81
2021/01/07 05:43:57;;;;;;;36.60;20.67;;;2.60;93.10;;;;;;4927925;28;20703;-81
2021/01/07 05:46:25;;;;;;;34.57;20.40;;;2.60;93.10;;;;;;4970627;28;20746;-83
2021/01/07 05:48:54;;;;;;;40.07;21.47;;;2.60;93.20;;;;;;4947125;28;20204;-82
2021/01/07 05:51:25;;;;;;;37.70;20.37;;;2.60;93.20;;;;;;4952499;28;20446;-82
2021/01/07 05:53:54;;;;;;;37.20;19.70;;;2.50;93.10;;;;;;4954682;28;20222;-81
2021/01/07 05:56:22;;;;;;;34.73;20.27;;;2.60;93.20;;;;;;4965502;28;20655;-82
2021/01/07 05:58:55;;;;;;;35.40;21.43;;;2.40;93.10;;;;;;4949766;28;20209;-83
2021/01/07 06:01:23;;;;;;;33.23;19.43;;;2.60;93.20;;;;;;4934677;28;20714;-82
2021/01/07 06:03:53;;;;;;;35.40;20.17;;;2.50;93.20;;;;;;4929434;28;20599;-81
2021/01/07 06:06:23;;;;;;;35.37;19.50;;;2.50;93.10;;;;;;4949540;28;20287;-82
2021/01/07 06:08:53;;;;;;;39.03;21.20;;;2.50;93.10;;;;;;4944422;28;20216;-81
2021/01/07 06:11:23;;;;;;;34.17;20.77;;;2.50;93.10;;;;;;4934913;28;20232;-81
2021/01/07 06:13:54;;;;;;;37.03;21.60;;;2.50;93.10;;;;;;4931427;28;20845;-80
2021/01/07 06:16:25;;;;;;;41.37;21.03;;;2.50;93.10;;;;;;4969916;28;20218;-83
2021/01/07 06:19:13;;;;;;;39.37;20.97;;;2.50;93.10;;;;;;4954458;28;20684;-80
2021/01/07 06:21:48;;;;;;;35.63;20.23;;;2.50;93.10;;;;;;4927848;28;20232;-81
2021/01/07 06:24:17;;;;;;;35.83;20.37;;;2.50;93.00;;;;;;4926282;28;20327;-80
2021/01/07 06:26:45;;;;;;;35.47;20.20;;;2.50;93.00;;;;;;4953790;28;20209;-82
2021/01/07 06:29:14;;;;;;;33.33;19.30;;;2.50;93.10;;;;;;4958414;28;20241;-79
2021/01/07 06:31:43;;;;;;;35.83;19.13;;;2.50;93.00;;;;;;4941841;28;20340;-82
2021/01/07 06:34:13;;;;;;;35.47;20.63;;;2.50;93.00;;;;;;4942389;28;20312;-81
2021/01/07 06:36:45;;;;;;;40.17;19.90;;;2.50;93.00;;;;;;4960088;28;20214;-81
2021/01/07 06:39:13;;;;;;;31.43;19.53;;;2.50;93.00;;;;;;4953814;28;20206;-79
2021/01/07 06:41:40;;;;;;;36.03;19.27;;;2.50;93.00;;;;;;4943712;28;20256;-81
2021/01/07 06:44:08;;;;;;;32.17;19.10;;;2.50;93.00;;;;;;4943577;28;20226;-79
2021/01/07 06:46:45;;;;;;;31.63;19.60;;;2.50;92.90;;;;;;4976131;28;20206;-80
2021/01/07 06:49:20;;;;;;;32.97;18.60;;;2.50;92.80;;;;;;4966419;28;20184;-82
2021/01/07 06:51:59;;;;;;;34.83;19.37;;;2.50;92.80;;;;;;4944231;28;20230;-82
2021/01/07 06:54:32;;;;;;;29.20;18.33;;;2.50;92.80;;;;;;4960420;28;20296;-83
2021/01/07 06:57:03;;;;;;;31.80;19.40;;;2.40;92.70;;;;;;4973930;28;20197;-82
2021/01/07 06:59:30;;;;;;;32.60;18.80;;;2.40;92.70;;;;;;4976610;28;20512;-81
2021/01/07 07:01:59;;;;;;;28.40;17.33;;;2.40;92.70;;;;;;4940691;28;20236;-80
2021/01/07 07:04:29;;;;;;;29.03;17.63;;;2.40;92.70;;;;;;4957665;28;20477;-82
2021/01/07 07:07:08;;;;;;;28.83;17.83;;;2.40;92.60;;;;;;4975157;28;20193;-82
2021/01/07 07:09:41;;;;;;;27.73;17.00;;;2.40;92.60;;;;;;4970584;28;20193;-82
2021/01/07 07:12:10;;;;;;;26.27;16.60;;;2.40;92.40;;;;;;4938382;28;20572;-82
2021/01/07 07:14:37;;;;;;;27.83;16.67;;;2.40;92.40;;;;;;4950961;28;20672;-82
2021/01/07 07:17:08;;;;;;;30.93;17.67;;;2.40;92.40;;;;;;4969667;28;20564;-80
2021/01/07 07:19:49;;;;;;;26.67;16.73;;;2.40;92.40;;;;;;4972322;28;20218;-81
2021/01/07 07:22:19;;;;;;;26.93;16.53;;;2.40;92.40;;;;;;4934052;28;20243;-81
2021/01/07 07:24:49;;;;;;;25.90;17.13;;;2.40;92.40;;;;;;4954515;28;20467;-82
2021/01/07 07:27:20;;;;;;;25.27;16.47;;;2.40;92.30;;;;;;4972872;28;20201;-81
2021/01/07 07:29:50;;;;;;;24.47;15.67;;;2.40;92.30;;;;;;4973359;28;20195;-80
2021/01/07 07:32:26;;;;;;;24.70;16.27;;;2.40;92.30;;;;;;4943339;28;20549;-81
2021/01/07 07:34:55;;;;;;;26.73;16.73;;;2.40;92.30;;;;;;4964143;28;20218;-81
2021/01/07 07:37:25;;;;;;;25.23;16.47;;;2.40;92.30;;;;;;4974042;28;20204;-80
2021/01/07 07:40:00;;;;;;;26.47;16.37;;;2.40;92.30;;;;;;4971026;28;20185;-82
2021/01/07 07:42:29;;;;;;;26.63;16.40;;;2.40;92.40;;;;;;4919162;28;20740;-78
2021/01/07 07:44:58;;;;;;;23.40;15.60;;;2.40;92.50;;;;;;4925921;28;20229;-78
2021/01/07 07:47:27;;;;;;;25.20;15.53;;;2.50;92.40;;;;;;4925092;28;21039;-77
2021/01/07 07:49:55;;;;;;;25.67;16.10;;;2.50;92.40;;;;;;4960770;28;20276;-79
2021/01/07 07:52:25;;;;;;;22.43;15.17;;;2.60;92.20;;;;;;4912407;28;20233;-80
2021/01/07 07:55:00;;;;;;;23.33;16.00;;;2.60;92.10;;;;;;4930705;28;20756;-77
2021/01/07 07:57:28;;;;;;;24.77;15.67;;;2.60;92.00;;;;;;4934476;28;20220;-77
2021/01/07 08:00:11;;;;;;;26.50;16.13;;;2.60;91.90;;;;;;4952820;28;20286;-79
2021/01/07 08:02:41;;;;;;;25.23;16.67;;;2.60;91.90;;;;;;4904474;28;20255;-80
2021/01/07 08:05:24;;;;;;;25.13;15.73;;;2.60;92.00;;;;;;4946564;28;20255;-78
2021/01/07 08:07:52;;;;;;;24.83;15.87;;;2.60;92.00;;;;;;4942886;28;20205;-80
2021/01/07 08:10:20;;;;;;;27.40;17.50;;;2.60;92.00;;;;;;4945935;28;20202;-77
2021/01/07 08:12:49;;;;;;;27.17;17.00;;;2.60;91.90;;;;;;4898604;28;20459;-81
2021/01/07 08:15:27;;;;;;;27.30;17.10;;;2.50;91.90;;;;;;4957609;28;20216;-79
2021/01/07 08:17:55;;;;;;;26.33;16.03;;;2.60;91.90;;;;;;4942153;28;20984;-76
2021/01/07 08:20:24;;;;;;;28.83;16.77;;;2.60;91.90;;;;;;4953410;28;20284;-78
2021/01/07 08:22:54;;;;;;;27.67;16.37;;;2.60;91.90;;;;;;4880593;28;20230;-81
2021/01/07 08:25:26;;;;;;;30.57;17.53;;;2.60;91.90;;;;;;4942340;28;20580;-80
2021/01/07 08:27:59;;;;;;;27.77;16.40;;;2.80;92.00;;;;;;4944665;28;20211;-81
2021/01/07 08:30:27;;;;;;;29.03;17.57;;;2.60;91.90;;;;;;4946205;28;20212;-78
2021/01/07 08:32:59;;;;;;;28.90;17.73;;;2.50;91.90;;;;;;4883819;28;20229;-80
2021/01/07 08:35:28;;;;;;;29.63;17.57;;;2.40;91.90;;;;;;4933676;28;20540;-77
2021/01/07 08:37:55;;;;;;;28.70;16.90;;;2.60;92.00;;;;;;4941563;28;20510;-79
2021/01/07 08:40:23;;;;;;;28.00;17.40;;;2.60;92.00;;;;;;4936921;28;20557;-79
2021/01/07 08:42:52;;;;;;;31.37;18.40;;;2.60;92.00;;;;;;4867604;28;20236;-79
2021/01/07 08:45:27;;;;;;;30.20;17.43;;;2.60;91.90;;;;;;4946728;28;20256;-82
2021/01/07 08:48:06;;;;;;;31.87;18.17;;;2.60;92.00;;;;;;4950765;28;20181;-77
2021/01/07 08:50:34;;;;;;;30.23;17.50;;;2.70;92.00;;;;;;4952086;28;20751;-78
2021/01/07 08:53:08;;;;;;;31.47;18.70;;;2.70;92.10;;;;;;4877025;28;20701;-79
2021/01/07 08:55:46;;;;;;;32.63;18.60;;;2.70;92.10;;;;;;4943943;28;20221;-77
2021/01/07 08:58:21;;;;;;;34.10;18.37;;;2.70;92.20;;;;;;4934481;28;20379;-79
2021/01/07 09:00:51;;;;;;;34.33;18.67;;;2.70;91.90;;;;;;4930865;28;20203;-79
2021/01/07 09:03:20;;;;;;;30.83;18.43;;;2.70;91.80;;;;;;4875746;28;20476;-79
2021/01/07 09:05:47;;;;;;;32.50;18.37;;;2.70;91.90;;;;;;4932456;28;20585;-79
2021/01/07 09:08:16;;;;;;;30.97;17.57;;;2.70;91.90;;;;;;4943566;28;20231;-79
2021/01/07 09:10:43;;;;;;;34.73;18.83;;;2.70;92.00;;;;;;4915662;28;20207;-78
2021/01/07 09:13:23;;;;;;;34.17;19.40;;;2.70;92.10;;;;;;4868573;28;20454;-77
2021/01/07 09:15:51;;;;;;;32.27;19.30;;;2.70;92.10;;;;;;4925342;28;20674;-79
2021/01/07 09:18:20;;;;;;;33.83;19.47;;;2.70;92.10;;;;;;4929085;28;20399;-77
2021/01/07 09:20:48;;;;;;;36.83;19.40;;;2.70;92.10;;;;;;4939072;28;20487;-80
2021/01/07 09:23:16;;;;;;;33.67;19.30;;;2.70;92.20;;;;;;4862023;28;20302;-79
2021/01/07 09:25:44;;;;;;;39.13;20.60;;;2.70;92.30;;;;;;4941628;28;20320;-78
2021/01/07 09:28:13;;;;;;;36.63;19.93;;;2.70;92.20;;;;;;4938712;28;20277;-79
2021/01/07 09:30:40;;;;;;;35.20;19.80;;;2.70;92.30;;;;;;4941964;28;20628;-79
2021/01/07 09:33:08;;;;;;;36.50;19.40;;;2.70;92.20;;;;;;4882857;28;20251;-78
2021/01/07 09:35:37;;;;;;;34.57;19.30;;;2.70;92.30;;;;;;4931838;28;20443;-78
2021/01/07 09:38:05;;;;;;;36.83;19.47;;;2.70;92.40;;;;;;4938177;28;20205;-79
2021/01/07 09:40:33;;;;;;;36.57;19.20;;;2.80;92.50;;;;;;4934641;28;20201;-78
2021/01/07 09:43:00;;;;;;;31.93;18.30;;;2.80;92.30;;;;;;4863373;28;20989;-78
2021/01/07 09:45:28;;;;;;;36.97;19.70;;;2.80;92.30;;;;;;4938525;28;20588;-77
2021/01/07 09:47:55;;;;;;;34.73;19.20;;;2.90;92.10;;;;;;4929367;28;20221;-78
2021/01/07 09:50:23;;;;;;;33.97;19.07;;;2.90;92.00;;;;;;4944226;28;21032;-78
2021/01/07 09:52:52;;;;;;;35.03;19.83;;;2.90;91.90;;;;;;4868692;28;20223;-80
2021/01/07 09:55:20;;;;;;;36.17;20.50;;;3.10;91.80;;;;;;4930361;28;20300;-76
2021/01/07 09:57:51;;;;;;;34.37;18.33;;;2.90;91.80;;;;;;4930234;28;20249;-77
2021/01/07 10:00:19;;;;;;;36.53;19.77;;;2.90;91.80;;;;;;4931335;28;20205;-78
2021/01/07 10:02:46;;;;;;;36.37;19.07;;;3.00;91.80;;;;;;4875731;28;20236;-77
2021/01/07 10:05:14;;;;;;;36.10;19.33;;;3.00;91.80;;;;;;4909800;28;20251;-76
2021/01/07 10:07:42;;;;;;;31.20;18.87;;;3.10;92.00;;;;;;4931971;28;20233;-76
2021/01/07 10:10:11;;;;;;;33.80;20.00;;;3.20;91.90;;;;;;4934338;28;20341;-79
2021/01/07 10:12:38;;;;;;;30.33;17.87;;;3.30;91.60;;;;;;4893765;28;20218;-78
2021/01/07 10:15:07;;;;;;;31.70;18.30;;;3.40;91.40;;;;;;4930692;28;20223;-77
2021/01/07 10:17:35;;;;;;;32.33;18.30;;;3.30;91.20;;;;;;4937697;28;20219;-78
2021/01/07 10:20:05;;;;;;;27.00;15.87;;;3.50;91.10;;;;;;4931408;28;20295;-79
2021/01/07 10:22:37;;;;;;;28.80;16.37;;;3.50;91.20;;;;;;4931858;28;20233;-79
2021/01/07 10:25:07;;;;;;;27.37;17.53;;;3.70;90.90;;;;;;4935584;28;20208;-79
2021/01/07 10:27:36;;;;;;;28.03;17.30;;;3.50;90.50;;;;;;4937135;28;20507;-79
2021/01/07 10:30:05;;;;;;;26.73;16.57;;;3.40;90.60;;;;;;4933439;28;20660;-79
2021/01/07 10:32:34;;;;;;;29.40;18.03;;;3.40;90.70;;;;;;4934215;28;20211;-79
2021/01/07 10:35:02;;;;;;;24.83;15.10;;;3.30;90.90;;;;;;4938132;28;20212;-79
2021/01/07 10:37:34;;;;;;;23.30;13.43;;;3.20;90.70;;;;;;4935279;28;20620;-79
2021/01/07 10:40:04;;;;;;;23.43;13.80;;;3.20;90.70;;;;;;4941115;28;20203;-79
2021/01/07 10:42:32;;;;;;;22.30;14.33;;;3.10;90.80;;;;;;4945644;28;20231;-79
2021/01/07 10:45:02;;;;;;;22.87;14.43;;;3.10;90.90;;;;;;4941567;28;20321;-81
2021/01/07 10:47:37;;;;;;;23.23;14.70;;;3.20;90.80;;;;;;4941459;28;21120;-80
2021/01/07 10:50:11;;;;;;;22.10;14.77;;;3.00;90.70;;;;;;4939627;28;20470;-77
2021/01/07 10:53:10;;;;;;;22.00;13.30;;;3.20;90.50;;;;;;4941247;28;20876;-79
2021/01/07 10:55:45;;;;;;;21.43;15.10;;;3.10;90.50;;;;;;4937738;28;20206;-80
2021/01/07 10:58:39;;;;;;;21.87;14.20;;;3.00;90.90;;;;;;4939382;28;20293;-80
2021/01/07 11:01:30;;;;;;;23.80;15.00;;;3.10;90.90;;;;;;4914573;28;20218;-79
2021/01/07 11:04:14;;;;;;;23.00;15.50;;;3.10;91.00;;;;;;4943514;28;20246;-80
2021/01/07 11:06:50;;;;;;;25.00;15.80;;;3.20;91.10;;;;;;4936150;28;20219;-79
2021/01/07 11:09:24;;;;;;;22.43;14.63;;;3.40;91.10;;;;;;4943445;28;20205;-78
2021/01/07 11:12:02;;;;;;;19.70;13.30;;;3.40;90.90;;;;;;4941504;28;20813;-80
2021/01/07 11:14:49;;;;;;;19.80;13.07;;;3.40;90.40;;;;;;4940762;28;20204;-80
2021/01/07 11:17:23;;;;;;;22.23;13.63;;;3.50;90.10;;;;;;4934318;28;20215;-78
2021/01/07 11:19:53;;;;;;;23.23;14.47;;;3.40;90.00;;;;;;4940726;28;20310;-79
2021/01/07 11:22:26;;;;;;;24.00;13.10;;;3.30;90.00;;;;;;4940962;28;20314;-80
2021/01/07 11:24:54;;;;;;;22.30;14.33;;;3.20;90.30;;;;;;4939605;28;20213;-78
2021/01/07 11:27:23;;;;;;;21.77;13.83;;;3.20;90.40;;;;;;4937067;28;20710;-80
2021/01/07 11:29:52;;;;;;;24.57;15.17;;;3.40;90.40;;;;;;4934485;28;21606;-79
2021/01/07 11:32:21;;;;;;;25.17;16.00;;;3.30;90.40;;;;;;4935604;28;21079;-78
2021/01/07 11:34:49;;;;;;;28.00;16.53;;;3.40;90.20;;;;;;4913745;28;20210;-79
2021/01/07 11:37:23;;;;;;;30.57;17.57;;;3.30;90.10;;;;;;4938332;28;20782;-80
2021/01/07 11:40:04;;;;;;;31.37;17.87;;;3.20;90.30;;;;;;4957411;28;20202;-78
2021/01/07 11:42:48;;;;;;;33.53;19.73;;;3.30;90.50;;;;;;4955031;28;20273;-80
2021/01/07 11:45:20;;;;;;;33.77;18.97;;;3.00;90.60;;;;;;4936212;28;20653;-77
2021/01/07 11:47:57;;;;;;;32.43;19.63;;;3.00;90.70;;;;;;4933451;28;20305;-78
2021/01/07 11:50:26;;;;;;;30.63;18.77;;;3.00;90.70;;;;;;4936979;28;20738;-79
2021/01/07 11:52:56;;;;;;;28.30;17.03;;;3.00;90.60;;;;;;4932261;28;20212;-78
2021/01/07 11:55:25;;;;;;;29.20;17.17;;;3.00;90.50;;;;;;4941258;28;20516;-79
2021/01/07 11:57:57;;;;;;;27.33;16.27;;;3.00;90.60;;;;;;4935123;28;20384;-80
2021/01/07 12:00:24;;;;;;;23.37;15.67;;;3.00;90.70;;;;;;4940006;28;21033;-79
2021/01/07 12:02:55;;;;;;;26.30;16.37;;;3.00;90.70;;;;;;4939956;28;20269;-78
2021/01/07 12:05:24;;;;;;;24.20;15.43;;;3.10;90.80;;;;;;4932685;28;20215;-79
2021/01/07 12:08:00;;;;;;;24.40;14.77;;;3.10;90.50;;;;;;4937173;28;20947;-80
2021/01/07 12:10:30;;;;;;;23.53;15.57;;;3.10;90.60;;;;;;4934755;28;20240;-78
2021/01/07 12:13:11;;;;;;;22.93;15.67;;;3.00;90.40;;;;;;4950807;28;20573;-79
2021/01/07 12:15:41;;;;;;;25.33;15.03;;;2.90;90.50;;;;;;4945149;28;20309;-79
2021/01/07 12:18:12;;;;;;;20.70;13.90;;;3.00;90.60;;;;;;4941164;28;20202;-79
2021/01/07 12:20:42;;;;;;;18.70;12.67;;;3.10;90.60;;;;;;4938982;28;20570;-79
2021/01/07 12:23:10;;;;;;;16.30;11.33;;;3.10;90.50;;;;;;4936702;28;20244;-79
2021/01/07 12:25:41;;;;;;;14.43;10.37;;;3.00;90.50;;;;;;4934836;28;20209;-78
2021/01/07 12:28:16;;;;;;;13.67;10.37;;;3.00;90.40;;;;;;4936894;28;20213;-78
2021/01/07 12:30:46;;;;;;;13.17;9.07;;;3.00;90.50;;;;;;4939822;28;20206;-79
2021/01/07 12:33:35;;;;;;;14.00;9.87;;;3.00;90.30;;;;;;4939923;28;20205;-80
2021/01/07 12:36:07;;;;;;;13.10;9.03;;;3.00;90.10;;;;;;4935181;28;20515;-80
2021/01/07 12:38:53;;;;;;;13.03;9.20;;;2.90;90.10;;;;;;4940192;28;20207;-79
2021/01/07 12:41:26;;;;;;;9.53;7.47;;;2.90;90.20;;;;;;4937857;28;20308;-78
2021/01/07 12:43:56;;;;;;;9.33;7.20;;;2.90;90.20;;;;;;4940964;28;20240;-80
2021/01/07 12:46:29;;;;;;;9.43;7.13;;;2.90;90.30;;;;;;4939415;28;20455;-79
2021/01/07 12:49:01;;;;;;;13.13;7.90;;;2.90;90.20;;;;;;4938049;28;20639;-79
2021/01/07 12:51:31;;;;;;;11.73;8.33;;;2.90;90.10;;;;;;4940514;28;20213;-79
2021/01/07 12:53:59;;;;;;;13.20;8.93;;;2.90;90.30;;;;;;4936263;28;20208;-79